sensor_id;sensor_type;location;lat;lon;timestamp;P1;durP1;ratioP1;P2;durP2;ratioP2
60908;SDS011;46780;48.128;-1.704;2022-07-23T00:01:55;21.27;;;6.05;;
60908;SDS011;46780;48.128;-1.704;2022-07-23T00:04:21;17.83;;;6.03;;
60908;SDS011;46780;48.128;-1.704;2022-07-23T00:06:48;17.98;;;5.85;;
60908;SDS011;46780;48.128;-1.704;2022-07-23T00:09:14;19.83;;;6.35;;
60908;SDS011;46780;48.128;-1.704;2022-07-23T00:11:42;27.00;;;7.20;;
60908;SDS011;46780;48.128;-1.704;2022-07-23T00:14:09;18.67;;;6.55;;
60908;SDS011;46780;48.128;-1.704;2022-07-23T00:16:35;21.80;;;7.07;;
60908;SDS011;46780;48.128;-1.704;2022-07-23T00:19:02;22.70;;;6.55;;
60908;SDS011;46780;48.128;-1.704;2022-07-23T00:21:28;20.48;;;6.70;;
60908;SDS011;46780;48.128;-1.704;2022-07-23T00:23:55;21.33;;;6.57;;
60908;SDS011;46780;48.128;-1.704;2022-07-23T00:26:22;31.95;;;7.10;;
60908;SDS011;46780;48.128;-1.704;2022-07-23T00:28:50;16.92;;;6.47;;
60908;SDS011;46780;48.128;-1.704;2022-07-23T00:31:17;17.65;;;6.82;;
60908;SDS011;46780;48.128;-1.704;2022-07-23T00:33:43;22.83;;;6.70;;
60908;SDS011;46780;48.128;-1.704;2022-07-23T00:36:10;22.08;;;7.25;;
60908;SDS011;46780;48.128;-1.704;2022-07-23T00:38:37;24.25;;;6.15;;
60908;SDS011;46780;48.128;-1.704;2022-07-23T00:41:04;22.67;;;7.40;;
60908;SDS011;46780;48.128;-1.704;2022-07-23T00:43:30;21.58;;;6.88;;
60908;SDS011;46780;48.128;-1.704;2022-07-23T00:45:58;19.63;;;7.25;;
60908;SDS011;46780;48.128;-1.704;2022-07-23T00:48:25;21.40;;;7.25;;
60908;SDS011;46780;48.128;-1.704;2022-07-23T00:50:52;21.17;;;7.13;;
60908;SDS011;46780;48.128;-1.704;2022-07-23T00:53:19;19.13;;;6.78;;
60908;SDS011;46780;48.128;-1.704;2022-07-23T00:55:46;21.75;;;6.93;;
60908;SDS011;46780;48.128;-1.704;2022-07-23T00:58:13;22.83;;;7.32;;
60908;SDS011;46780;48.128;-1.704;2022-07-23T01:00:40;26.10;;;7.45;;
60908;SDS011;46780;48.128;-1.704;2022-07-23T01:03:08;17.48;;;7.38;;
60908;SDS011;46780;48.128;-1.704;2022-07-23T01:05:35;19.58;;;7.85;;
60908;SDS011;46780;48.128;-1.704;2022-07-23T01:08:02;17.70;;;7.45;;
60908;SDS011;46780;48.128;-1.704;2022-07-23T01:10:29;22.83;;;8.43;;
60908;SDS011;46780;48.128;-1.704;2022-07-23T01:12:56;28.40;;;8.50;;
60908;SDS011;46780;48.128;-1.704;2022-07-23T01:15:23;18.50;;;7.90;;
60908;SDS011;46780;48.128;-1.704;2022-07-23T01:17:50;25.73;;;8.00;;
60908;SDS011;46780;48.128;-1.704;2022-07-23T01:20:18;22.52;;;7.28;;
60908;SDS011;46780;48.128;-1.704;2022-07-23T01:22:46;21.67;;;7.60;;
60908;SDS011;46780;48.128;-1.704;2022-07-23T01:25:13;19.58;;;7.60;;
60908;SDS011;46780;48.128;-1.704;2022-07-23T01:27:40;20.60;;;8.07;;
60908;SDS011;46780;48.128;-1.704;2022-07-23T01:30:07;21.27;;;7.57;;
60908;SDS011;46780;48.128;-1.704;2022-07-23T01:32:34;19.90;;;7.90;;
60908;SDS011;46780;48.128;-1.704;2022-07-23T01:35:00;20.83;;;7.70;;
60908;SDS011;46780;48.128;-1.704;2022-07-23T01:37:27;25.90;;;8.63;;
60908;SDS011;46780;48.128;-1.704;2022-07-23T01:39:55;19.05;;;8.18;;
60908;SDS011;46780;48.128;-1.704;2022-07-23T01:42:21;20.35;;;7.88;;
60908;SDS011;46780;48.128;-1.704;2022-07-23T01:44:48;19.20;;;8.05;;
60908;SDS011;46780;48.128;-1.704;2022-07-23T01:47:15;20.92;;;7.55;;
60908;SDS011;46780;48.128;-1.704;2022-07-23T01:49:41;20.30;;;7.78;;
60908;SDS011;46780;48.128;-1.704;2022-07-23T01:52:08;21.50;;;8.18;;
60908;SDS011;46780;48.128;-1.704;2022-07-23T01:54:34;18.95;;;7.90;;
60908;SDS011;46780;48.128;-1.704;2022-07-23T01:57:02;16.88;;;7.57;;
60908;SDS011;46780;48.128;-1.704;2022-07-23T01:59:29;24.20;;;7.78;;
60908;SDS011;46780;48.128;-1.704;2022-07-23T02:01:56;21.88;;;8.75;;
60908;SDS011;46780;48.128;-1.704;2022-07-23T02:04:24;23.05;;;8.32;;
60908;SDS011;46780;48.128;-1.704;2022-07-23T02:06:51;22.50;;;8.10;;
60908;SDS011;46780;48.128;-1.704;2022-07-23T02:09:19;22.90;;;8.05;;
60908;SDS011;46780;48.128;-1.704;2022-07-23T02:11:45;24.45;;;8.88;;
60908;SDS011;46780;48.128;-1.704;2022-07-23T02:14:13;23.00;;;8.05;;
60908;SDS011;46780;48.128;-1.704;2022-07-23T02:16:40;18.88;;;8.07;;
60908;SDS011;46780;48.128;-1.704;2022-07-23T02:19:07;19.60;;;7.78;;
60908;SDS011;46780;48.128;-1.704;2022-07-23T02:21:33;22.65;;;8.15;;
60908;SDS011;46780;48.128;-1.704;2022-07-23T02:23:59;23.25;;;8.18;;
60908;SDS011;46780;48.128;-1.704;2022-07-23T02:26:26;27.40;;;8.82;;
60908;SDS011;46780;48.128;-1.704;2022-07-23T02:28:52;21.70;;;7.80;;
60908;SDS011;46780;48.128;-1.704;2022-07-23T02:31:20;23.48;;;8.55;;
60908;SDS011;46780;48.128;-1.704;2022-07-23T02:33:47;20.98;;;8.07;;
60908;SDS011;46780;48.128;-1.704;2022-07-23T02:36:14;24.05;;;8.10;;
60908;SDS011;46780;48.128;-1.704;2022-07-23T02:38:40;20.20;;;8.07;;
60908;SDS011;46780;48.128;-1.704;2022-07-23T02:41:06;17.60;;;8.07;;
60908;SDS011;46780;48.128;-1.704;2022-07-23T02:43:33;23.42;;;8.05;;
60908;SDS011;46780;48.128;-1.704;2022-07-23T02:46:00;20.50;;;7.60;;
60908;SDS011;46780;48.128;-1.704;2022-07-23T02:48:27;21.30;;;8.07;;
60908;SDS011;46780;48.128;-1.704;2022-07-23T02:50:54;21.00;;;8.52;;
60908;SDS011;46780;48.128;-1.704;2022-07-23T02:53:20;20.17;;;7.63;;
60908;SDS011;46780;48.128;-1.704;2022-07-23T02:55:47;25.35;;;8.15;;
60908;SDS011;46780;48.128;-1.704;2022-07-23T02:58:13;20.60;;;7.68;;
60908;SDS011;46780;48.128;-1.704;2022-07-23T03:00:40;21.52;;;7.97;;
60908;SDS011;46780;48.128;-1.704;2022-07-23T03:03:06;19.40;;;8.18;;
60908;SDS011;46780;48.128;-1.704;2022-07-23T03:05:34;18.27;;;8.07;;
60908;SDS011;46780;48.128;-1.704;2022-07-23T03:08:01;26.13;;;8.85;;
60908;SDS011;46780;48.128;-1.704;2022-07-23T03:10:27;22.25;;;8.35;;
60908;SDS011;46780;48.128;-1.704;2022-07-23T03:12:54;22.63;;;8.88;;
60908;SDS011;46780;48.128;-1.704;2022-07-23T03:15:20;20.58;;;8.52;;
60908;SDS011;46780;48.128;-1.704;2022-07-23T03:17:47;21.45;;;8.82;;
60908;SDS011;46780;48.128;-1.704;2022-07-23T03:20:13;18.67;;;8.43;;
60908;SDS011;46780;48.128;-1.704;2022-07-23T03:22:41;21.17;;;8.60;;
60908;SDS011;46780;48.128;-1.704;2022-07-23T03:25:08;24.38;;;8.75;;
60908;SDS011;46780;48.128;-1.704;2022-07-23T03:27:35;23.52;;;8.65;;
60908;SDS011;46780;48.128;-1.704;2022-07-23T03:30:01;24.25;;;8.38;;
60908;SDS011;46780;48.128;-1.704;2022-07-23T03:32:28;23.17;;;7.93;;
60908;SDS011;46780;48.128;-1.704;2022-07-23T03:34:55;20.73;;;7.85;;
60908;SDS011;46780;48.128;-1.704;2022-07-23T03:37:21;22.15;;;8.18;;
60908;SDS011;46780;48.128;-1.704;2022-07-23T03:39:49;21.80;;;9.00;;
60908;SDS011;46780;48.128;-1.704;2022-07-23T03:42:16;28.50;;;9.10;;
60908;SDS011;46780;48.128;-1.704;2022-07-23T03:44:42;24.48;;;8.90;;
60908;SDS011;46780;48.128;-1.704;2022-07-23T03:47:08;22.52;;;8.35;;
60908;SDS011;46780;48.128;-1.704;2022-07-23T03:49:35;27.00;;;9.27;;
60908;SDS011;46780;48.128;-1.704;2022-07-23T03:52:01;27.08;;;9.15;;
60908;SDS011;46780;48.128;-1.704;2022-07-23T03:54:28;24.73;;;9.32;;
60908;SDS011;46780;48.128;-1.704;2022-07-23T03:56:56;25.80;;;9.65;;
60908;SDS011;46780;48.128;-1.704;2022-07-23T03:59:23;25.27;;;9.27;;
60908;SDS011;46780;48.128;-1.704;2022-07-23T04:01:49;22.52;;;9.60;;
60908;SDS011;46780;48.128;-1.704;2022-07-23T04:04:16;20.17;;;8.73;;
60908;SDS011;46780;48.128;-1.704;2022-07-23T04:06:42;23.23;;;8.95;;
60908;SDS011;46780;48.128;-1.704;2022-07-23T04:09:09;27.27;;;9.40;;
60908;SDS011;46780;48.128;-1.704;2022-07-23T04:11:35;25.42;;;9.52;;
60908;SDS011;46780;48.128;-1.704;2022-07-23T04:14:03;26.23;;;9.68;;
60908;SDS011;46780;48.128;-1.704;2022-07-23T04:16:30;22.48;;;9.02;;
60908;SDS011;46780;48.128;-1.704;2022-07-23T04:18:56;25.67;;;10.00;;
60908;SDS011;46780;48.128;-1.704;2022-07-23T04:21:23;21.63;;;9.43;;
60908;SDS011;46780;48.128;-1.704;2022-07-23T04:23:50;23.15;;;9.40;;
60908;SDS011;46780;48.128;-1.704;2022-07-23T04:26:16;26.17;;;9.20;;
60908;SDS011;46780;48.128;-1.704;2022-07-23T04:28:42;26.73;;;9.80;;
60908;SDS011;46780;48.128;-1.704;2022-07-23T04:31:10;24.67;;;10.02;;
60908;SDS011;46780;48.128;-1.704;2022-07-23T04:33:37;22.13;;;9.68;;
60908;SDS011;46780;48.128;-1.704;2022-07-23T04:36:03;24.13;;;9.90;;
60908;SDS011;46780;48.128;-1.704;2022-07-23T04:38:30;26.48;;;9.90;;
60908;SDS011;46780;48.128;-1.704;2022-07-23T04:40:57;24.65;;;10.27;;
60908;SDS011;46780;48.128;-1.704;2022-07-23T04:43:23;23.77;;;9.48;;
60908;SDS011;46780;48.128;-1.704;2022-07-23T04:45:49;21.02;;;10.02;;
60908;SDS011;46780;48.128;-1.704;2022-07-23T04:48:17;26.83;;;9.48;;
60908;SDS011;46780;48.128;-1.704;2022-07-23T04:50:44;24.48;;;10.05;;
60908;SDS011;46780;48.128;-1.704;2022-07-23T04:53:10;28.38;;;10.25;;
60908;SDS011;46780;48.128;-1.704;2022-07-23T04:55:36;25.80;;;10.25;;
60908;SDS011;46780;48.128;-1.704;2022-07-23T04:58:03;23.70;;;9.85;;
60908;SDS011;46780;48.128;-1.704;2022-07-23T05:00:29;22.42;;;9.95;;
60908;SDS011;46780;48.128;-1.704;2022-07-23T05:02:56;27.98;;;10.25;;
60908;SDS011;46780;48.128;-1.704;2022-07-23T05:05:24;20.90;;;9.63;;
60908;SDS011;46780;48.128;-1.704;2022-07-23T05:07:51;20.17;;;9.30;;
60908;SDS011;46780;48.128;-1.704;2022-07-23T05:10:17;25.80;;;9.95;;
60908;SDS011;46780;48.128;-1.704;2022-07-23T05:12:45;22.25;;;10.18;;
60908;SDS011;46780;48.128;-1.704;2022-07-23T05:15:11;22.15;;;10.50;;
60908;SDS011;46780;48.128;-1.704;2022-07-23T05:17:38;24.90;;;9.75;;
60908;SDS011;46780;48.128;-1.704;2022-07-23T05:20:04;27.15;;;10.55;;
60908;SDS011;46780;48.128;-1.704;2022-07-23T05:22:33;24.35;;;9.88;;
60908;SDS011;46780;48.128;-1.704;2022-07-23T05:25:00;23.42;;;10.57;;
60908;SDS011;46780;48.128;-1.704;2022-07-23T05:27:27;29.17;;;10.63;;
60908;SDS011;46780;48.128;-1.704;2022-07-23T05:29:54;24.42;;;9.80;;
60908;SDS011;46780;48.128;-1.704;2022-07-23T05:32:21;21.05;;;10.02;;
60908;SDS011;46780;48.128;-1.704;2022-07-23T05:34:47;22.23;;;10.02;;
60908;SDS011;46780;48.128;-1.704;2022-07-23T05:37:14;27.20;;;10.40;;
60908;SDS011;46780;48.128;-1.704;2022-07-23T05:39:42;28.55;;;10.38;;
60908;SDS011;46780;48.128;-1.704;2022-07-23T05:42:09;20.20;;;9.95;;
60908;SDS011;46780;48.128;-1.704;2022-07-23T05:44:35;22.73;;;10.13;;
60908;SDS011;46780;48.128;-1.704;2022-07-23T05:47:02;22.85;;;10.50;;
60908;SDS011;46780;48.128;-1.704;2022-07-23T05:49:29;25.85;;;10.63;;
60908;SDS011;46780;48.128;-1.704;2022-07-23T05:51:55;25.90;;;10.85;;
60908;SDS011;46780;48.128;-1.704;2022-07-23T05:54:22;22.10;;;10.55;;
60908;SDS011;46780;48.128;-1.704;2022-07-23T05:56:50;27.75;;;10.45;;
60908;SDS011;46780;48.128;-1.704;2022-07-23T05:59:17;26.70;;;11.32;;
60908;SDS011;46780;48.128;-1.704;2022-07-23T06:01:43;20.77;;;10.50;;
60908;SDS011;46780;48.128;-1.704;2022-07-23T06:04:10;26.00;;;10.48;;
60908;SDS011;46780;48.128;-1.704;2022-07-23T06:06:37;21.20;;;9.98;;
60908;SDS011;46780;48.128;-1.704;2022-07-23T06:09:03;20.65;;;10.00;;
60908;SDS011;46780;48.128;-1.704;2022-07-23T06:11:30;22.13;;;10.45;;
60908;SDS011;46780;48.128;-1.704;2022-07-23T06:13:58;31.73;;;10.55;;
60908;SDS011;46780;48.128;-1.704;2022-07-23T06:16:25;22.73;;;10.02;;
60908;SDS011;46780;48.128;-1.704;2022-07-23T06:18:52;27.08;;;9.93;;
60908;SDS011;46780;48.128;-1.704;2022-07-23T06:21:18;23.25;;;10.18;;
60908;SDS011;46780;48.128;-1.704;2022-07-23T06:23:45;22.15;;;10.52;;
60908;SDS011;46780;48.128;-1.704;2022-07-23T06:26:12;25.35;;;10.88;;
60908;SDS011;46780;48.128;-1.704;2022-07-23T06:28:38;20.55;;;10.23;;
60908;SDS011;46780;48.128;-1.704;2022-07-23T06:31:07;23.13;;;10.90;;
60908;SDS011;46780;48.128;-1.704;2022-07-23T06:33:33;28.45;;;10.95;;
60908;SDS011;46780;48.128;-1.704;2022-07-23T06:36:00;19.45;;;10.07;;
60908;SDS011;46780;48.128;-1.704;2022-07-23T06:38:27;18.55;;;10.30;;
60908;SDS011;46780;48.128;-1.704;2022-07-23T06:40:53;20.58;;;10.00;;
60908;SDS011;46780;48.128;-1.704;2022-07-23T06:43:21;22.52;;;10.35;;
60908;SDS011;46780;48.128;-1.704;2022-07-23T06:45:47;23.75;;;10.60;;
60908;SDS011;46780;48.128;-1.704;2022-07-23T06:48:15;23.63;;;10.15;;
60908;SDS011;46780;48.128;-1.704;2022-07-23T06:50:42;27.65;;;10.60;;
60908;SDS011;46780;48.128;-1.704;2022-07-23T06:53:09;25.70;;;10.95;;
60908;SDS011;46780;48.128;-1.704;2022-07-23T06:55:36;22.10;;;10.70;;
60908;SDS011;46780;48.128;-1.704;2022-07-23T06:58:02;23.77;;;10.02;;
60908;SDS011;46780;48.128;-1.704;2022-07-23T07:00:29;26.48;;;10.27;;
60908;SDS011;46780;48.128;-1.704;2022-07-23T07:02:56;19.95;;;9.45;;
60908;SDS011;46780;48.128;-1.704;2022-07-23T07:05:24;22.00;;;10.23;;
60908;SDS011;46780;48.128;-1.704;2022-07-23T07:07:51;24.30;;;9.63;;
60908;SDS011;46780;48.128;-1.704;2022-07-23T07:10:18;21.00;;;9.55;;
60908;SDS011;46780;48.128;-1.704;2022-07-23T07:12:45;24.45;;;9.88;;
60908;SDS011;46780;48.128;-1.704;2022-07-23T07:15:11;23.80;;;9.35;;
60908;SDS011;46780;48.128;-1.704;2022-07-23T07:17:38;22.58;;;9.32;;
60908;SDS011;46780;48.128;-1.704;2022-07-23T07:20:05;24.08;;;9.38;;
60908;SDS011;46780;48.128;-1.704;2022-07-23T07:22:33;24.75;;;9.07;;
60908;SDS011;46780;48.128;-1.704;2022-07-23T07:25:00;21.80;;;9.18;;
60908;SDS011;46780;48.128;-1.704;2022-07-23T07:27:27;22.25;;;8.68;;
60908;SDS011;46780;48.128;-1.704;2022-07-23T07:29:53;20.45;;;7.93;;
60908;SDS011;46780;48.128;-1.704;2022-07-23T07:32:20;22.50;;;8.50;;
60908;SDS011;46780;48.128;-1.704;2022-07-23T07:34:46;23.08;;;8.35;;
60908;SDS011;46780;48.128;-1.704;2022-07-23T07:37:13;23.67;;;8.32;;
60908;SDS011;46780;48.128;-1.704;2022-07-23T07:39:41;19.17;;;8.50;;
60908;SDS011;46780;48.128;-1.704;2022-07-23T07:42:07;18.40;;;8.02;;
60908;SDS011;46780;48.128;-1.704;2022-07-23T07:44:34;17.70;;;7.50;;
60908;SDS011;46780;48.128;-1.704;2022-07-23T07:47:00;16.95;;;7.72;;
60908;SDS011;46780;48.128;-1.704;2022-07-23T07:49:27;19.63;;;8.25;;
60908;SDS011;46780;48.128;-1.704;2022-07-23T07:51:53;17.65;;;6.90;;
60908;SDS011;46780;48.128;-1.704;2022-07-23T07:54:20;17.00;;;7.20;;
60908;SDS011;46780;48.128;-1.704;2022-07-23T07:56:48;18.15;;;8.15;;
60908;SDS011;46780;48.128;-1.704;2022-07-23T07:59:14;18.15;;;7.35;;
60908;SDS011;46780;48.128;-1.704;2022-07-23T08:01:41;17.75;;;7.32;;
60908;SDS011;46780;48.128;-1.704;2022-07-23T08:04:08;17.17;;;6.32;;
60908;SDS011;46780;48.128;-1.704;2022-07-23T08:06:34;21.35;;;6.25;;
60908;SDS011;46780;48.128;-1.704;2022-07-23T08:09:01;16.55;;;5.75;;
60908;SDS011;46780;48.128;-1.704;2022-07-23T08:11:27;19.85;;;5.68;;
60908;SDS011;46780;48.128;-1.704;2022-07-23T08:13:55;16.27;;;5.40;;
60908;SDS011;46780;48.128;-1.704;2022-07-23T08:16:21;19.50;;;5.53;;
60908;SDS011;46780;48.128;-1.704;2022-07-23T08:18:48;16.25;;;5.30;;
60908;SDS011;46780;48.128;-1.704;2022-07-23T08:21:14;18.27;;;5.57;;
60908;SDS011;46780;48.128;-1.704;2022-07-23T08:23:41;25.55;;;5.68;;
60908;SDS011;46780;48.128;-1.704;2022-07-23T08:26:07;19.95;;;5.65;;
60908;SDS011;46780;48.128;-1.704;2022-07-23T08:28:34;22.98;;;6.32;;
60908;SDS011;46780;48.128;-1.704;2022-07-23T08:31:02;18.15;;;5.90;;
60908;SDS011;46780;48.128;-1.704;2022-07-23T08:33:29;17.75;;;5.55;;
60908;SDS011;46780;48.128;-1.704;2022-07-23T08:35:55;21.25;;;6.22;;
60908;SDS011;46780;48.128;-1.704;2022-07-23T08:38:21;15.80;;;6.15;;
60908;SDS011;46780;48.128;-1.704;2022-07-23T08:40:49;14.93;;;5.38;;
60908;SDS011;46780;48.128;-1.704;2022-07-23T08:43:17;20.30;;;5.38;;
60908;SDS011;46780;48.128;-1.704;2022-07-23T08:45:45;18.85;;;5.28;;
60908;SDS011;46780;48.128;-1.704;2022-07-23T08:48:15;15.85;;;4.75;;
60908;SDS011;46780;48.128;-1.704;2022-07-23T08:50:42;16.33;;;5.50;;
60908;SDS011;46780;48.128;-1.704;2022-07-23T08:53:10;17.92;;;5.15;;
60908;SDS011;46780;48.128;-1.704;2022-07-23T08:55:36;14.82;;;4.78;;
60908;SDS011;46780;48.128;-1.704;2022-07-23T08:58:03;13.38;;;5.03;;
60908;SDS011;46780;48.128;-1.704;2022-07-23T09:00:30;17.33;;;5.50;;
60908;SDS011;46780;48.128;-1.704;2022-07-23T09:02:56;18.42;;;4.80;;
60908;SDS011;46780;48.128;-1.704;2022-07-23T09:05:25;14.02;;;4.65;;
60908;SDS011;46780;48.128;-1.704;2022-07-23T09:08:07;15.52;;;4.93;;
60908;SDS011;46780;48.128;-1.704;2022-07-23T09:10:46;14.52;;;4.43;;
60908;SDS011;46780;48.128;-1.704;2022-07-23T09:13:28;14.32;;;4.28;;
60908;SDS011;46780;48.128;-1.704;2022-07-23T09:16:00;13.77;;;4.18;;
60908;SDS011;46780;48.128;-1.704;2022-07-23T09:18:33;16.15;;;4.30;;
60908;SDS011;46780;48.128;-1.704;2022-07-23T09:21:07;14.82;;;4.30;;
60908;SDS011;46780;48.128;-1.704;2022-07-23T09:23:44;15.13;;;4.15;;
60908;SDS011;46780;48.128;-1.704;2022-07-23T09:26:21;14.98;;;4.10;;
60908;SDS011;46780;48.128;-1.704;2022-07-23T09:28:51;12.30;;;3.80;;
60908;SDS011;46780;48.128;-1.704;2022-07-23T09:31:21;10.43;;;3.80;;
60908;SDS011;46780;48.128;-1.704;2022-07-23T09:33:49;13.23;;;4.03;;
60908;SDS011;46780;48.128;-1.704;2022-07-23T09:36:17;14.13;;;4.03;;
60908;SDS011;46780;48.128;-1.704;2022-07-23T09:38:53;13.00;;;3.63;;
60908;SDS011;46780;48.128;-1.704;2022-07-23T09:41:20;11.77;;;3.72;;
60908;SDS011;46780;48.128;-1.704;2022-07-23T09:43:46;13.30;;;4.00;;
60908;SDS011;46780;48.128;-1.704;2022-07-23T09:46:19;11.40;;;3.80;;
60908;SDS011;46780;48.128;-1.704;2022-07-23T09:48:47;13.00;;;3.90;;
60908;SDS011;46780;48.128;-1.704;2022-07-23T09:51:14;12.32;;;4.00;;
60908;SDS011;46780;48.128;-1.704;2022-07-23T09:53:43;14.07;;;4.88;;
60908;SDS011;46780;48.128;-1.704;2022-07-23T09:56:09;14.32;;;3.53;;
60908;SDS011;46780;48.128;-1.704;2022-07-23T09:58:39;9.70;;;3.55;;
60908;SDS011;46780;48.128;-1.704;2022-07-23T10:01:06;12.18;;;4.10;;
60908;SDS011;46780;48.128;-1.704;2022-07-23T10:03:32;15.80;;;3.80;;
60908;SDS011;46780;48.128;-1.704;2022-07-23T10:05:59;11.80;;;3.72;;
60908;SDS011;46780;48.128;-1.704;2022-07-23T10:08:26;11.57;;;3.70;;
60908;SDS011;46780;48.128;-1.704;2022-07-23T10:10:54;10.70;;;3.85;;
60908;SDS011;46780;48.128;-1.704;2022-07-23T10:13:21;12.18;;;3.50;;
60908;SDS011;46780;48.128;-1.704;2022-07-23T10:15:47;10.15;;;3.40;;
60908;SDS011;46780;48.128;-1.704;2022-07-23T10:18:15;16.65;;;4.00;;
60908;SDS011;46780;48.128;-1.704;2022-07-23T10:20:42;12.77;;;3.70;;
60908;SDS011;46780;48.128;-1.704;2022-07-23T10:23:11;14.00;;;3.70;;
60908;SDS011;46780;48.128;-1.704;2022-07-23T10:25:50;12.40;;;3.75;;
60908;SDS011;46780;48.128;-1.704;2022-07-23T10:28:30;12.15;;;3.80;;
60908;SDS011;46780;48.128;-1.704;2022-07-23T10:31:17;14.73;;;3.40;;
60908;SDS011;46780;48.128;-1.704;2022-07-23T10:33:54;12.38;;;3.53;;
60908;SDS011;46780;48.128;-1.704;2022-07-23T10:36:29;12.95;;;3.60;;
60908;SDS011;46780;48.128;-1.704;2022-07-23T10:39:06;17.00;;;3.63;;
60908;SDS011;46780;48.128;-1.704;2022-07-23T10:41:41;11.20;;;3.55;;
60908;SDS011;46780;48.128;-1.704;2022-07-23T10:44:11;10.90;;;3.40;;
60908;SDS011;46780;48.128;-1.704;2022-07-23T10:46:55;14.07;;;3.30;;
60908;SDS011;46780;48.128;-1.704;2022-07-23T10:49:24;11.95;;;3.58;;
60908;SDS011;46780;48.128;-1.704;2022-07-23T10:54:51;11.07;;;3.60;;
60908;SDS011;46780;48.128;-1.704;2022-07-23T10:57:20;14.27;;;3.25;;
60908;SDS011;46780;48.128;-1.704;2022-07-23T11:02:48;13.53;;;3.40;;
60908;SDS011;46780;48.128;-1.704;2022-07-23T11:05:16;10.85;;;3.35;;
60908;SDS011;46780;48.128;-1.704;2022-07-23T11:10:37;8.98;;;3.50;;
60908;SDS011;46780;48.128;-1.704;2022-07-23T11:19:04;11.65;;;3.60;;
60908;SDS011;46780;48.128;-1.704;2022-07-23T11:21:50;10.48;;;3.50;;
60908;SDS011;46780;48.128;-1.704;2022-07-23T11:24:18;15.48;;;3.40;;
60908;SDS011;46780;48.128;-1.704;2022-07-23T11:26:49;13.07;;;3.42;;
60908;SDS011;46780;48.128;-1.704;2022-07-23T11:29:44;10.35;;;3.75;;
60908;SDS011;46780;48.128;-1.704;2022-07-23T11:32:22;15.77;;;3.63;;
60908;SDS011;46780;48.128;-1.704;2022-07-23T11:34:59;11.38;;;3.70;;
60908;SDS011;46780;48.128;-1.704;2022-07-23T11:37:27;11.38;;;3.10;;
60908;SDS011;46780;48.128;-1.704;2022-07-23T11:39:58;11.90;;;3.20;;
60908;SDS011;46780;48.128;-1.704;2022-07-23T11:42:25;10.85;;;3.30;;
60908;SDS011;46780;48.128;-1.704;2022-07-23T11:44:53;12.70;;;3.40;;
60908;SDS011;46780;48.128;-1.704;2022-07-23T11:47:21;9.02;;;3.10;;
60908;SDS011;46780;48.128;-1.704;2022-07-23T11:52:18;8.55;;;3.15;;
60908;SDS011;46780;48.128;-1.704;2022-07-23T11:54:48;12.23;;;3.60;;
60908;SDS011;46780;48.128;-1.704;2022-07-23T11:57:16;8.98;;;3.38;;
60908;SDS011;46780;48.128;-1.704;2022-07-23T11:59:44;8.55;;;3.05;;
60908;SDS011;46780;48.128;-1.704;2022-07-23T12:02:14;11.80;;;3.00;;
60908;SDS011;46780;48.128;-1.704;2022-07-23T12:04:41;10.88;;;3.30;;
60908;SDS011;46780;48.128;-1.704;2022-07-23T12:07:25;10.48;;;3.20;;
60908;SDS011;46780;48.128;-1.704;2022-07-23T12:09:52;9.20;;;3.17;;
60908;SDS011;46780;48.128;-1.704;2022-07-23T12:12:19;10.02;;;2.97;;
60908;SDS011;46780;48.128;-1.704;2022-07-23T12:14:50;8.77;;;3.55;;
60908;SDS011;46780;48.128;-1.704;2022-07-23T12:17:19;13.65;;;3.70;;
60908;SDS011;46780;48.128;-1.704;2022-07-23T12:19:46;13.45;;;3.72;;
60908;SDS011;46780;48.128;-1.704;2022-07-23T12:22:13;8.23;;;3.15;;
60908;SDS011;46780;48.128;-1.704;2022-07-23T12:24:52;7.43;;;3.05;;
60908;SDS011;46780;48.128;-1.704;2022-07-23T12:27:23;15.98;;;3.20;;
60908;SDS011;46780;48.128;-1.704;2022-07-23T12:29:51;11.85;;;3.20;;
60908;SDS011;46780;48.128;-1.704;2022-07-23T12:32:20;9.02;;;3.40;;
60908;SDS011;46780;48.128;-1.704;2022-07-23T12:37:25;9.35;;;3.50;;
60908;SDS011;46780;48.128;-1.704;2022-07-23T12:39:53;8.73;;;3.42;;
60908;SDS011;46780;48.128;-1.704;2022-07-23T12:42:19;10.18;;;3.80;;
60908;SDS011;46780;48.128;-1.704;2022-07-23T12:45:08;11.48;;;3.67;;
60908;SDS011;46780;48.128;-1.704;2022-07-23T12:50:32;8.63;;;3.50;;
60908;SDS011;46780;48.128;-1.704;2022-07-23T12:53:03;8.90;;;3.67;;
60908;SDS011;46780;48.128;-1.704;2022-07-23T12:55:31;9.63;;;3.28;;
60908;SDS011;46780;48.128;-1.704;2022-07-23T12:58:02;10.70;;;3.70;;
60908;SDS011;46780;48.128;-1.704;2022-07-23T13:03:23;8.57;;;3.38;;
60908;SDS011;46780;48.128;-1.704;2022-07-23T13:05:51;12.93;;;3.55;;
60908;SDS011;46780;48.128;-1.704;2022-07-23T13:08:18;9.27;;;3.67;;
60908;SDS011;46780;48.128;-1.704;2022-07-23T13:10:45;8.85;;;3.45;;
60908;SDS011;46780;48.128;-1.704;2022-07-23T13:13:12;11.27;;;3.50;;
60908;SDS011;46780;48.128;-1.704;2022-07-23T13:15:38;16.55;;;3.50;;
60908;SDS011;46780;48.128;-1.704;2022-07-23T13:18:05;11.88;;;3.40;;
60908;SDS011;46780;48.128;-1.704;2022-07-23T13:20:33;7.50;;;3.20;;
60908;SDS011;46780;48.128;-1.704;2022-07-23T13:23:00;9.95;;;3.50;;
60908;SDS011;46780;48.128;-1.704;2022-07-23T13:25:26;10.13;;;3.30;;
60908;SDS011;46780;48.128;-1.704;2022-07-23T13:27:53;7.60;;;3.40;;
60908;SDS011;46780;48.128;-1.704;2022-07-23T13:30:19;10.23;;;3.15;;
60908;SDS011;46780;48.128;-1.704;2022-07-23T13:32:47;8.18;;;3.45;;
60908;SDS011;46780;48.128;-1.704;2022-07-23T13:35:13;8.10;;;3.65;;
60908;SDS011;46780;48.128;-1.704;2022-07-23T13:37:41;10.32;;;3.30;;
60908;SDS011;46780;48.128;-1.704;2022-07-23T13:40:08;8.98;;;3.10;;
60908;SDS011;46780;48.128;-1.704;2022-07-23T13:42:35;8.05;;;3.40;;
60908;SDS011;46780;48.128;-1.704;2022-07-23T13:45:02;9.23;;;3.15;;
60908;SDS011;46780;48.128;-1.704;2022-07-23T13:47:29;8.02;;;3.25;;
60908;SDS011;46780;48.128;-1.704;2022-07-23T13:49:56;8.77;;;3.08;;
60908;SDS011;46780;48.128;-1.704;2022-07-23T13:52:23;9.13;;;3.25;;
60908;SDS011;46780;48.128;-1.704;2022-07-23T13:54:51;9.32;;;3.50;;
60908;SDS011;46780;48.128;-1.704;2022-07-23T13:57:17;11.13;;;3.22;;
60908;SDS011;46780;48.128;-1.704;2022-07-23T13:59:44;9.50;;;3.30;;
60908;SDS011;46780;48.128;-1.704;2022-07-23T14:02:10;9.95;;;3.08;;
60908;SDS011;46780;48.128;-1.704;2022-07-23T14:04:41;9.63;;;3.30;;
60908;SDS011;46780;48.128;-1.704;2022-07-23T14:07:08;8.90;;;3.30;;
60908;SDS011;46780;48.128;-1.704;2022-07-23T14:09:34;7.10;;;3.47;;
60908;SDS011;46780;48.128;-1.704;2022-07-23T14:12:03;6.85;;;3.00;;
60908;SDS011;46780;48.128;-1.704;2022-07-23T14:14:31;6.80;;;3.10;;
60908;SDS011;46780;48.128;-1.704;2022-07-23T14:16:57;7.78;;;3.03;;
60908;SDS011;46780;48.128;-1.704;2022-07-23T14:19:24;6.10;;;3.03;;
60908;SDS011;46780;48.128;-1.704;2022-07-23T14:21:50;11.60;;;3.10;;
60908;SDS011;46780;48.128;-1.704;2022-07-23T14:24:17;8.80;;;3.50;;
60908;SDS011;46780;48.128;-1.704;2022-07-23T14:26:44;7.95;;;3.15;;
60908;SDS011;46780;48.128;-1.704;2022-07-23T14:29:12;8.38;;;3.50;;
60908;SDS011;46780;48.128;-1.704;2022-07-23T14:31:38;8.00;;;2.92;;
60908;SDS011;46780;48.128;-1.704;2022-07-23T14:34:05;7.22;;;3.05;;
60908;SDS011;46780;48.128;-1.704;2022-07-23T14:36:31;11.52;;;3.22;;
60908;SDS011;46780;48.128;-1.704;2022-07-23T14:38:58;9.80;;;3.50;;
60908;SDS011;46780;48.128;-1.704;2022-07-23T14:41:24;9.45;;;3.72;;
60908;SDS011;46780;48.128;-1.704;2022-07-23T14:43:51;8.68;;;3.10;;
60908;SDS011;46780;48.128;-1.704;2022-07-23T14:46:19;10.75;;;3.22;;
60908;SDS011;46780;48.128;-1.704;2022-07-23T14:48:45;5.93;;;2.80;;
60908;SDS011;46780;48.128;-1.704;2022-07-23T14:51:12;7.60;;;3.30;;